Blossom Valley, California
Current Conditions -  °F | °C
As of 8:56 PM on Saturday 25 Oct 2014 (Local Time) from KNUQ Reporting Station
Clear Clear  
Wind Chill: 63°   Ceiling: Unl
Heat Index: 63°   Visibility: 10mi
Dew Point: 56°   Wind: 3mph
Humidity: 78%   Direction: 260°W
Pressure: 30.12"   Gusts: NA
Location:  37.3801°N, 122.086°W
Report Text: KNUQ 260356Z 26003KT 10SM CLR 17/13 A3012 RMK AO2 SLP201 T01720133
Loading
Personal Weather Stations






























Interactive Weather Map
Tropical Storm Tracking
New forecast layout! Learn more

10-Day Weather Forecast

Advertisements
Track Severe Weather on mobile